createdAt,value
2023-09-19T00:02:35.441Z,99837.41
2023-09-19T00:05:45.483Z,99827.59
2023-09-19T00:08:53.877Z,99832.22
2023-09-19T00:12:02.383Z,99825.19
2023-09-19T00:15:17.373Z,99832.97
2023-09-19T00:18:33.378Z,99832.94
2023-09-19T00:21:48.380Z,99829.06
2023-09-19T00:24:56.400Z,99832.91
2023-09-19T00:28:06.190Z,99827.84
2023-09-19T00:31:17.449Z,99825.06
2023-09-19T00:34:26.187Z,99821.94
2023-09-19T00:37:41.464Z,99821.16
2023-09-19T00:41:00.030Z,99828.13
2023-09-19T00:44:22.422Z,99814.50
2023-09-19T00:47:37.543Z,99818.75
2023-09-19T00:50:48.133Z,99818.41
2023-09-19T00:53:57.391Z,99813.28
2023-09-19T00:57:12.668Z,99820.31
2023-09-19T01:00:21.605Z,99819.88
2023-09-19T01:03:36.507Z,99819.47
2023-09-19T01:06:45.020Z,99826.84
2023-09-19T01:09:53.401Z,99830.75
2023-09-19T01:13:17.419Z,99835.84
2023-09-19T01:16:48.191Z,99828.00
2023-09-19T01:20:15.401Z,99830.34
2023-09-19T01:24:01.416Z,99829.94
2023-09-19T01:27:24.459Z,99825.59
2023-09-19T01:30:42.416Z,99825.63
2023-09-19T01:34:09.504Z,99813.78
2023-09-19T01:37:19.553Z,99818.50
2023-09-19T01:40:34.442Z,99821.53
2023-09-19T01:43:42.389Z,99814.84
2023-09-19T01:46:57.447Z,99771.94
2023-09-19T01:50:31.822Z,99811.22
2023-09-19T01:54:01.422Z,99822.03
2023-09-19T01:57:40.407Z,99814.16
2023-09-19T02:01:00.419Z,99822.72
2023-09-19T02:04:09.778Z,99822.09
2023-09-19T02:07:25.480Z,99815.34
2023-09-19T02:10:27.870Z,99822.72
2023-09-19T02:13:42.747Z,99807.88
2023-09-19T02:16:51.054Z,99822.72
2023-09-19T02:20:01.444Z,99815.31
2023-09-19T02:23:18.453Z,99818.84
2023-09-19T02:26:27.241Z,99818.78
2023-09-19T02:29:35.455Z,99803.25
2023-09-19T02:32:50.448Z,99810.28
2023-09-19T02:36:05.445Z,99805.56
2023-09-19T02:39:20.458Z,99817.22
2023-09-19T02:42:35.426Z,99812.91
2023-09-19T02:45:44.444Z,99810.59
2023-09-19T02:48:59.456Z,99820.25
2023-09-19T02:52:08.263Z,99821.41
2023-09-19T02:55:26.458Z,99821.81
2023-09-19T02:58:41.512Z,99820.25
2023-09-19T03:01:50.334Z,99804.63
2023-09-19T03:05:05.445Z,99810.81
2023-09-19T03:08:07.369Z,99797.88
2023-09-19T03:11:23.811Z,99805.22
2023-09-19T03:14:38.444Z,99797.38
2023-09-19T03:17:44.603Z,99807.47
2023-09-19T03:21:03.438Z,99816.03
2023-09-19T03:24:12.283Z,99808.47
2023-09-19T03:27:21.459Z,99807.22
2023-09-19T03:30:30.000Z,99802.50
2023-09-19T03:33:38.681Z,99802.06
2023-09-19T03:36:47.570Z,99807.88
2023-09-19T03:39:56.463Z,99813.66
2023-09-19T03:43:05.248Z,99794.06
2023-09-19T03:46:13.517Z,99811.75
2023-09-19T03:49:28.483Z,99813.25
2023-09-19T03:52:36.499Z,99819.44
2023-09-19T03:55:53.555Z,99808.78
2023-09-19T03:59:08.472Z,99812.31
2023-09-19T04:02:17.015Z,99818.09
2023-09-19T04:05:25.469Z,99822.47
2023-09-19T04:08:40.469Z,99815.56
2023-09-19T04:11:42.301Z,99822.22
2023-09-19T04:14:57.447Z,99822.25
2023-09-19T04:18:12.558Z,99818.81
2023-09-19T04:21:27.445Z,99823.94
2023-09-19T04:24:42.486Z,99831.38
2023-09-19T04:27:52.472Z,99829.81
2023-09-19T04:31:08.465Z,99827.78
2023-09-19T04:34:17.509Z,99845.00
2023-09-19T04:37:26.339Z,99847.00
2023-09-19T04:40:42.495Z,99845.47
2023-09-19T04:43:51.290Z,99851.34
2023-09-19T04:46:59.621Z,99850.63
2023-09-19T04:50:11.040Z,99846.38
2023-09-19T04:53:26.484Z,99843.28
2023-09-19T04:56:35.483Z,99856.53
2023-09-19T04:59:50.511Z,99859.69
2023-09-19T05:02:59.438Z,99851.75
2023-09-19T05:06:14.488Z,99858.84
2023-09-19T05:09:16.334Z,99863.84
2023-09-19T05:12:35.340Z,99869.59
2023-09-19T05:15:51.502Z,99871.81
2023-09-19T05:18:59.486Z,99874.88
2023-09-19T05:22:14.484Z,99875.66
2023-09-19T05:25:16.716Z,99887.28
2023-09-19T05:28:31.496Z,99893.41
2023-09-19T05:31:46.581Z,99894.97
2023-09-19T05:34:48.861Z,99910.34
2023-09-19T05:38:03.496Z,99919.66
2023-09-19T05:41:05.602Z,99915.81
2023-09-19T05:44:21.518Z,99912.47
2023-09-19T05:47:30.524Z,99910.81
2023-09-19T05:50:39.434Z,99908.16
2023-09-19T05:53:54.497Z,99915.28
2023-09-19T05:57:10.501Z,99901.94
2023-09-19T06:00:13.312Z,99921.47
2023-09-19T06:03:28.529Z,99914.94
2023-09-19T06:06:37.483Z,99914.22
2023-09-19T06:09:46.258Z,99922.47
2023-09-19T06:13:02.510Z,99920.78
2023-09-19T06:16:04.522Z,99920.13
2023-09-19T06:19:19.565Z,99928.94
2023-09-19T06:22:28.516Z,99931.34
2023-09-19T06:25:43.530Z,99924.72
2023-09-19T06:28:52.542Z,99930.53
2023-09-19T06:32:07.567Z,99941.56
2023-09-19T06:35:23.504Z,99944.22
2023-09-19T06:38:32.505Z,99952.06
2023-09-19T06:41:47.542Z,99952.44
2023-09-19T06:44:56.302Z,99955.69
2023-09-19T06:48:05.565Z,99954.87
2023-09-19T06:51:15.142Z,99959.91
2023-09-19T06:54:29.534Z,99954.03
2023-09-19T06:57:31.687Z,99973.62
2023-09-19T07:00:46.561Z,99978.37
2023-09-19T07:04:01.544Z,99985.53
2023-09-19T07:07:16.518Z,99989.41
2023-09-19T07:10:18.706Z,99999.72
2023-09-19T07:13:33.543Z,100009.72
2023-09-19T07:16:42.199Z,100013.16
2023-09-19T07:19:57.546Z,100008.78
2023-09-19T07:23:06.116Z,100017.00
2023-09-19T07:26:14.527Z,100018.56
2023-09-19T07:29:30.516Z,100027.06
2023-09-19T07:32:39.939Z,100028.66
2023-09-19T07:35:52.522Z,100029.72
2023-09-19T07:39:17.041Z,100031.19
2023-09-19T07:42:30.603Z,100024.09
2023-09-19T07:45:39.154Z,100025.47
2023-09-19T07:48:47.556Z,100038.19
2023-09-19T07:52:02.722Z,100043.38
2023-09-19T07:55:12.046Z,100057.66
2023-09-19T07:58:33.607Z,100068.00
2023-09-19T08:01:42.635Z,100071.66
2023-09-19T08:04:51.560Z,100063.78
2023-09-19T08:08:00.689Z,100070.97
2023-09-19T08:11:09.036Z,100078.09
2023-09-19T08:14:23.530Z,100082.22
2023-09-19T08:17:32.843Z,100078.00
2023-09-19T08:20:47.703Z,100090.12
2023-09-19T08:23:56.553Z,100090.31
2023-09-19T08:27:05.608Z,100096.25
2023-09-19T08:30:14.622Z,100090.31
2023-09-19T08:33:29.537Z,100095.44
2023-09-19T08:36:38.101Z,100099.16
2023-09-19T08:39:46.537Z,100107.03
2023-09-19T08:43:02.546Z,100115.88
2023-09-19T08:46:16.884Z,100107.72
2023-09-19T08:50:09.574Z,100132.19
2023-09-19T08:53:41.670Z,100135.28
2023-09-19T08:56:46.223Z,100150.97
2023-09-19T09:00:09.532Z,100150.59
2023-09-19T09:03:27.553Z,100154.81
2023-09-19T09:06:43.636Z,100167.59
2023-09-19T09:09:52.469Z,100173.03
2023-09-19T09:13:08.543Z,100170.84
2023-09-19T09:16:18.082Z,100153.31
2023-09-19T09:19:32.570Z,100152.22
2023-09-19T09:22:52.368Z,100144.84
2023-09-19T09:26:09.631Z,100105.19
2023-09-19T09:29:54.558Z,100087.03
2023-09-19T09:33:12.383Z,100093.38
2023-09-19T09:36:41.572Z,100082.53
2023-09-19T09:40:01.565Z,100078.50
2023-09-19T09:43:10.570Z,100080.75
2023-09-19T09:46:27.623Z,100081.88
2023-09-19T09:49:29.944Z,100094.06
2023-09-19T09:52:55.165Z,100100.97
2023-09-19T09:56:17.078Z,100127.50
2023-09-19T09:59:52.556Z,100140.12
2023-09-19T10:03:08.875Z,100134.97
2023-09-19T10:06:18.706Z,100135.41
2023-09-19T10:09:27.587Z,100129.75
2023-09-19T10:12:37.386Z,100129.84
2023-09-19T10:15:56.697Z,100129.22
2023-09-19T10:19:08.569Z,100133.34
2023-09-19T10:22:25.614Z,100136.47
2023-09-19T10:25:37.279Z,100128.53
2023-09-19T10:28:55.653Z,100134.28
2023-09-19T10:32:00.268Z,100133.22
2023-09-19T10:35:21.115Z,100135.34
2023-09-19T10:40:16.735Z,100146.53
2023-09-19T10:43:37.784Z,100146.53
2023-09-19T10:46:48.548Z,100156.91
2023-09-19T10:50:05.172Z,100144.38
2023-09-19T10:53:21.792Z,100147.97
2023-09-19T10:56:41.720Z,100145.50
2023-09-19T11:00:08.480Z,100164.56
2023-09-19T11:03:28.792Z,100163.41
2023-09-19T11:06:46.757Z,100159.72
2023-09-19T11:09:56.813Z,100168.66
2023-09-19T11:13:31.825Z,100165.34
2023-09-19T11:16:40.434Z,100169.94
2023-09-19T11:20:10.779Z,100169.22
2023-09-19T11:23:21.052Z,100174.97
2023-09-19T11:26:53.093Z,100175.87
2023-09-19T11:30:27.219Z,100175.44
2023-09-19T11:33:37.735Z,100164.81
2023-09-19T11:36:52.762Z,100174.03
2023-09-19T11:40:07.681Z,100162.44
2023-09-19T11:43:55.738Z,100163.91
2023-09-19T11:47:13.809Z,100162.09
2023-09-19T11:50:20.376Z,100158.50
2023-09-19T11:53:42.738Z,100163.28
2023-09-19T11:56:45.899Z,100150.16
2023-09-19T12:00:00.761Z,100145.13
2023-09-19T12:03:18.861Z,100154.19
2023-09-19T12:06:29.303Z,100148.56
2023-09-19T12:09:50.226Z,100151.16
2023-09-19T12:12:58.478Z,100139.75
2023-09-19T12:16:07.853Z,100149.84
2023-09-19T12:19:26.762Z,100148.34
2023-09-19T12:22:40.720Z,100153.38
2023-09-19T12:25:55.838Z,100140.59
2023-09-19T12:29:04.834Z,100140.62
2023-09-19T12:32:13.773Z,100144.84
2023-09-19T12:35:29.435Z,100133.97
2023-09-19T12:38:44.807Z,100136.28
2023-09-19T12:42:00.775Z,100146.44
2023-09-19T12:45:09.920Z,100146.94
2023-09-19T12:48:27.892Z,100165.09
2023-09-19T12:51:36.914Z,100165.81
2023-09-19T12:54:47.822Z,100156.84
2023-09-19T12:58:16.934Z,100161.00
2023-09-19T13:01:33.953Z,100144.91
2023-09-19T13:04:53.525Z,100163.72
2023-09-19T13:08:25.775Z,100161.97
2023-09-19T13:11:37.756Z,100151.22
2023-09-19T13:14:52.783Z,100163.66
2023-09-19T13:18:00.832Z,100155.06
2023-09-19T13:21:10.848Z,100164.69
2023-09-19T13:24:33.006Z,100155.63
2023-09-19T13:27:45.189Z,100161.50
2023-09-19T13:30:53.884Z,100156.06
2023-09-19T13:34:02.574Z,100160.62
2023-09-19T13:37:11.784Z,100160.69
2023-09-19T13:40:33.818Z,100163.22
2023-09-19T13:43:48.799Z,100162.63
2023-09-19T13:47:03.987Z,100177.78
2023-09-19T13:50:18.776Z,100185.59
2023-09-19T13:53:27.582Z,100194.41
2023-09-19T13:56:35.819Z,100196.75
2023-09-19T13:59:50.839Z,100200.56
2023-09-19T14:02:59.872Z,100197.69
2023-09-19T14:06:08.408Z,100199.78
2023-09-19T14:09:16.891Z,100195.69
2023-09-19T14:12:31.781Z,100198.44
2023-09-19T14:15:40.336Z,100211.56
2023-09-19T14:18:54.782Z,100211.41
2023-09-19T14:22:09.789Z,100204.97
2023-09-19T14:25:21.295Z,100198.47
2023-09-19T14:28:38.854Z,100197.56
2023-09-19T14:31:54.114Z,100199.56
2023-09-19T14:35:10.938Z,100201.41
2023-09-19T14:38:26.094Z,100188.94
2023-09-19T14:41:34.814Z,100187.75
2023-09-19T14:44:49.830Z,100185.09
2023-09-19T14:47:58.889Z,100197.50
2023-09-19T14:51:14.797Z,100200.81
2023-09-19T14:54:29.807Z,100204.47
2023-09-19T14:57:32.005Z,100198.28
2023-09-19T15:00:46.857Z,100188.78
2023-09-19T15:03:49.246Z,100206.81
2023-09-19T15:07:04.052Z,100204.09
2023-09-19T15:10:12.875Z,100208.44
2023-09-19T15:13:21.844Z,100204.47
2023-09-19T15:16:30.449Z,100203.28
2023-09-19T15:19:38.924Z,100198.22
2023-09-19T15:22:47.943Z,100204.56
2023-09-19T15:25:57.874Z,100206.16
2023-09-19T15:29:10.367Z,100207.72
2023-09-19T15:32:26.329Z,100216.31
2023-09-19T15:35:29.289Z,100212.59
2023-09-19T15:39:03.828Z,100214.19
2023-09-19T15:42:12.815Z,100217.69
2023-09-19T15:45:21.501Z,100219.91
2023-09-19T15:48:37.903Z,100213.94
2023-09-19T15:51:40.633Z,100227.50
2023-09-19T15:54:56.830Z,100223.09
2023-09-19T15:58:12.835Z,100234.25
2023-09-19T16:01:29.843Z,100234.06
2023-09-19T16:04:44.983Z,100219.09
2023-09-19T16:07:53.975Z,100229.53
2023-09-19T16:11:02.861Z,100230.19
2023-09-19T16:14:18.205Z,100238.72
2023-09-19T16:17:26.936Z,100234.38
2023-09-19T16:20:35.876Z,100233.41
2023-09-19T16:23:58.875Z,100235.00
2023-09-19T16:27:14.841Z,100239.97
2023-09-19T16:30:17.550Z,100242.66
2023-09-19T16:33:33.910Z,100236.38
2023-09-19T16:36:42.499Z,100241.69
2023-09-19T16:40:03.846Z,100238.44
2023-09-19T16:43:18.842Z,100234.50
2023-09-19T16:46:27.885Z,100243.00
2023-09-19T16:49:36.649Z,100241.78
2023-09-19T16:52:51.983Z,100248.34
2023-09-19T16:56:05.278Z,100250.87
2023-09-19T16:59:15.887Z,100249.66
2023-09-19T17:02:25.019Z,100254.22
2023-09-19T17:05:34.018Z,100258.31
2023-09-19T17:08:50.854Z,100251.94
2023-09-19T17:12:06.833Z,100260.50
2023-09-19T17:15:09.471Z,100266.22
2023-09-19T17:18:24.123Z,100270.97
2023-09-19T17:21:40.197Z,100274.78
2023-09-19T17:24:48.795Z,100291.31
2023-09-19T17:28:05.916Z,100288.59
2023-09-19T17:31:14.701Z,100288.09
2023-09-19T17:34:34.189Z,100287.94
2023-09-19T17:37:44.282Z,100290.44
2023-09-19T17:41:13.896Z,100299.81
2023-09-19T17:44:26.347Z,100296.16
2023-09-19T17:47:41.470Z,100296.84
2023-09-19T17:51:14.988Z,100292.91
2023-09-19T17:54:29.920Z,100302.22
2023-09-19T17:57:48.254Z,100298.13
2023-09-19T18:01:16.512Z,100300.41
2023-09-19T18:04:29.810Z,100297.25
2023-09-19T18:07:51.474Z,100312.00
2023-09-19T18:11:07.021Z,100311.03
2023-09-19T18:14:23.469Z,100325.34
2023-09-19T18:17:41.364Z,100323.12
2023-09-19T18:20:47.318Z,100325.25
2023-09-19T18:24:08.448Z,100326.13
2023-09-19T18:27:12.958Z,100319.88
2023-09-19T18:30:27.943Z,100330.31
2023-09-19T18:33:37.649Z,100328.47
2023-09-19T18:36:57.314Z,100330.91
2023-09-19T18:40:13.000Z,100336.81
2023-09-19T18:43:29.327Z,100341.97
2023-09-19T18:46:38.451Z,100345.28
2023-09-19T18:49:50.146Z,100347.78
2023-09-19T18:53:08.952Z,100353.13
2023-09-19T18:56:25.622Z,100348.97
2023-09-19T18:59:34.904Z,100349.56
2023-09-19T19:02:52.575Z,100344.72
2023-09-19T19:05:56.444Z,100360.34
2023-09-19T19:09:11.916Z,100365.56
2023-09-19T19:12:14.540Z,100369.16
2023-09-19T19:15:31.419Z,100362.03
2023-09-19T19:18:41.218Z,100371.53
2023-09-19T19:21:51.705Z,100377.53
2023-09-19T19:25:07.896Z,100376.75
2023-09-19T19:28:17.515Z,100375.50
2023-09-19T19:31:27.439Z,100375.16
2023-09-19T19:34:45.339Z,100380.59
2023-09-19T19:38:01.333Z,100379.13
2023-09-19T19:41:17.524Z,100387.94
2023-09-19T19:44:27.363Z,100381.38
2023-09-19T19:47:43.406Z,100384.88
2023-09-19T19:50:46.931Z,100395.06
2023-09-19T19:54:01.899Z,100387.59
2023-09-19T19:57:11.468Z,100384.97
2023-09-19T20:00:21.220Z,100389.16
2023-09-19T20:03:37.576Z,100389.50
2023-09-19T20:06:40.145Z,100386.09
2023-09-19T20:09:55.923Z,100389.37
2023-09-19T20:13:05.328Z,100390.81
2023-09-19T20:16:19.936Z,100389.47
2023-09-19T20:19:35.909Z,100395.41
2023-09-19T20:22:48.209Z,100396.41
2023-09-19T20:26:08.908Z,100397.56
2023-09-19T20:29:24.897Z,100390.06
2023-09-19T20:32:27.811Z,100400.47
2023-09-19T20:35:43.900Z,100405.59
2023-09-19T20:39:00.078Z,100401.84
2023-09-19T20:42:15.890Z,100400.47
2023-09-19T20:45:24.921Z,100402.38
2023-09-19T20:48:35.114Z,100402.84
2023-09-19T20:51:43.917Z,100399.09
2023-09-19T20:54:59.912Z,100390.03
2023-09-19T20:58:08.977Z,100396.91
2023-09-19T21:01:17.830Z,100399.03
2023-09-19T21:04:32.933Z,100405.09
2023-09-19T21:07:41.711Z,100399.81
2023-09-19T21:10:49.920Z,100406.16
2023-09-19T21:13:58.794Z,100403.25
2023-09-19T21:17:14.045Z,100408.59
2023-09-19T21:20:16.076Z,100409.97
2023-09-19T21:23:30.931Z,100415.09
2023-09-19T21:26:39.942Z,100415.47
2023-09-19T21:29:54.969Z,100417.16
2023-09-19T21:33:11.009Z,100418.00
2023-09-19T21:36:13.907Z,100405.78
2023-09-19T21:39:29.911Z,100407.69
2023-09-19T21:42:44.968Z,100399.28
2023-09-19T21:45:53.803Z,100422.78
2023-09-19T21:49:05.447Z,100421.16
2023-09-19T21:52:14.729Z,100433.16
2023-09-19T21:55:22.948Z,100429.97
2023-09-19T21:58:39.213Z,100430.63
2023-09-19T22:01:47.751Z,100433.84
2023-09-19T22:04:57.046Z,100436.97
2023-09-19T22:08:15.987Z,100431.69
2023-09-19T22:11:30.946Z,100433.41
2023-09-19T22:14:39.984Z,100427.91
2023-09-19T22:17:48.761Z,100432.19
2023-09-19T22:21:04.953Z,100431.72
2023-09-19T22:24:13.513Z,100430.72
2023-09-19T22:27:21.934Z,100429.94
2023-09-19T22:30:39.059Z,100442.69
2023-09-19T22:33:47.937Z,100449.22
2023-09-19T22:37:02.924Z,100439.06
2023-09-19T22:40:11.759Z,100439.06
2023-09-19T22:43:31.977Z,100448.62
2023-09-19T22:46:34.821Z,100441.00
2023-09-19T22:49:50.007Z,100446.75
2023-09-19T22:52:58.804Z,100449.28
2023-09-19T22:56:17.984Z,100446.13
2023-09-19T22:59:33.077Z,100444.50
2023-09-19T23:02:41.577Z,100452.78
2023-09-19T23:05:56.948Z,100468.56
2023-09-19T23:09:05.932Z,100468.56
2023-09-19T23:12:14.862Z,100478.63
2023-09-19T23:15:23.004Z,100476.88
2023-09-19T23:18:32.229Z,100474.69
2023-09-19T23:21:40.949Z,100479.44
2023-09-19T23:24:50.549Z,100476.59
2023-09-19T23:28:05.950Z,100474.34
2023-09-19T23:31:08.125Z,100473.06
2023-09-19T23:34:22.985Z,100467.78
2023-09-19T23:37:24.926Z,100470.50
2023-09-19T23:40:42.957Z,100468.94
2023-09-19T23:43:45.161Z,100462.78
2023-09-19T23:47:00.007Z,100474.87
2023-09-19T23:50:08.966Z,100471.41
2023-09-19T23:53:17.803Z,100476.88
2023-09-19T23:56:32.942Z,100475.78
2023-09-19T23:59:40.950Z,100481.97
